Time;durP1;ratioP1;P1;durP2;ratioP2;P2;SDS_P1;SDS_P2;PMS_P1;PMS_P2;Temp;Humidity;BMP_temperature;BMP_pressure;BME280_temperature;BME280_humidity;BME280_pressure;Samples;Min_cycle;Max_cycle;Signal;HPM_P1;HPM_P2
2022/12/30 00:01:07;;;;;;;83.95;49.33;;;7.70;83.70;;;;;;4934525;29;20451;-17
2022/12/30 00:03:34;;;;;;;90.68;51.10;;;7.70;83.80;;;;;;4935157;29;20028;-16
2022/12/30 00:06:00;;;;;;;92.82;53.13;;;7.70;83.80;;;;;;4934930;29;20091;-18
2022/12/30 00:11:10;;;;;;;93.97;53.13;;;7.70;83.90;;;;;;4935043;29;20349;-16
2022/12/30 00:33:22;;;;;;;72.65;42.92;;;7.60;83.90;;;;;;4938183;29;20043;-15
2022/12/30 00:35:48;;;;;;;76.03;45.35;;;7.60;84.10;;;;;;4938242;29;20032;-18
2022/12/30 00:38:14;;;;;;;73.53;42.95;;;7.60;84.30;;;;;;4937152;29;20437;-17
2022/12/30 00:43:07;;;;;;;103.70;54.90;;;7.70;84.40;;;;;;4938278;29;20054;-17
2022/12/30 00:43:26;;;;;;;77.15;46.58;;;7.70;84.40;;;;;;4938109;29;20038;-17
2022/12/30 00:45:53;;;;;;;87.10;52.15;;;7.70;84.40;;;;;;4938229;29;20035;-17
2022/12/30 00:56:35;;;;;;;101.60;55.67;;;7.80;84.20;;;;;;4938268;29;20035;-19
2022/12/30 00:59:01;;;;;;;96.75;54.00;;;7.70;84.30;;;;;;4937590;29;20043;-18
2022/12/30 01:01:27;;;;;;;92.93;52.10;;;7.70;84.30;;;;;;4936318;29;20400;-19
2022/12/30 01:03:53;;;;;;;80.22;45.78;;;7.70;84.40;;;;;;4937660;29;20035;-18
2022/12/30 01:06:19;;;;;;;81.97;47.15;;;7.70;84.60;;;;;;4937797;29;20039;-18
2022/12/30 01:08:44;;;;;;;78.82;44.25;;;7.70;84.40;;;;;;4937787;29;20024;-18
2022/12/30 01:11:10;;;;;;;81.15;45.05;;;7.70;84.50;;;;;;4937421;29;20047;-17
2022/12/30 01:13:37;;;;;;;73.15;43.00;;;7.70;84.50;;;;;;4937750;29;20027;-18
2022/12/30 01:16:14;;;;;;;92.18;50.72;;;7.70;84.70;;;;;;4937659;29;20063;-18
2022/12/30 01:18:41;;;;;;;81.60;45.13;;;7.70;84.70;;;;;;4937533;29;20425;-19
2022/12/30 01:21:07;;;;;;;67.40;39.50;;;7.70;84.70;;;;;;4937309;29;20468;-17
2022/12/30 01:23:34;;;;;;;61.45;35.72;;;7.70;84.80;;;;;;4937291;29;20098;-19
2022/12/30 01:26:02;;;;;;;60.50;35.58;;;7.70;84.90;;;;;;4937321;29;20066;-17
2022/12/30 01:28:29;;;;;;;67.25;37.63;;;7.70;84.90;;;;;;4937256;29;20028;-17
2022/12/30 01:30:55;;;;;;;58.95;34.80;;;7.70;84.90;;;;;;4937171;29;20032;-18
2022/12/30 01:33:21;;;;;;;52.97;32.38;;;7.70;84.90;;;;;;4937128;29;20032;-18
2022/12/30 01:35:47;;;;;;;62.97;37.95;;;7.70;84.80;;;;;;4937103;29;20055;-16
2022/12/30 01:38:13;;;;;;;68.35;38.53;;;7.80;84.90;;;;;;4937305;29;20035;-18
2022/12/30 01:40:40;;;;;;;63.28;34.83;;;7.80;84.80;;;;;;4936457;29;20166;-17
2022/12/30 01:43:11;;;;;;;54.85;33.30;;;7.80;84.80;;;;;;4936998;29;20047;-17
2022/12/30 01:45:38;;;;;;;56.30;32.58;;;7.80;84.80;;;;;;4936789;29;20032;-18
2022/12/30 01:48:22;;;;;;;50.72;30.55;;;7.70;84.80;;;;;;4937149;29;20186;-15
2022/12/30 01:50:56;;;;;;;65.90;36.33;;;7.80;84.70;;;;;;4936701;29;20459;-16
2022/12/30 01:53:32;;;;;;;68.25;41.15;;;7.70;84.70;;;;;;4936974;29;20110;-17
2022/12/30 01:56:10;;;;;;;58.47;32.90;;;7.70;84.70;;;;;;4936939;29;20034;-18
2022/12/30 01:59:05;;;;;;;46.25;27.98;;;7.70;84.60;;;;;;4936974;29;20023;-18
2022/12/30 02:01:33;;;;;;;38.65;25.17;;;7.70;84.70;;;;;;4928664;29;20052;-18
2022/12/30 02:04:02;;;;;;;56.25;32.10;;;7.70;84.70;;;;;;4936922;29;20071;-17
2022/12/30 02:06:48;;;;;;;60.58;36.03;;;7.70;84.80;;;;;;4936788;29;20408;-17
2022/12/30 02:09:14;;;;;;;43.20;26.40;;;7.70;84.70;;;;;;4936931;29;20034;-17
2022/12/30 02:11:40;;;;;;;59.45;33.67;;;7.70;84.70;;;;;;4936709;29;20028;-19
2022/12/30 02:14:07;;;;;;;64.22;37.20;;;7.70;84.70;;;;;;4936515;29;20032;-17
2022/12/30 02:16:36;;;;;;;53.80;32.13;;;7.70;84.60;;;;;;4936338;29;20035;-18
2022/12/30 02:19:23;;;;;;;67.30;38.13;;;7.70;84.60;;;;;;4936192;29;20468;-17
2022/12/30 02:22:30;;;;;;;61.67;35.22;;;7.60;84.60;;;;;;4936481;29;20028;-17
2022/12/30 02:25:33;;;;;;;54.00;29.80;;;7.60;84.70;;;;;;4908423;29;20066;-15
2022/12/30 02:28:17;;;;;;;43.80;25.10;;;7.50;84.70;;;;;;4936085;29;20048;-15
2022/12/30 02:30:58;;;;;;;56.08;32.95;;;7.60;84.80;;;;;;4936005;29;20046;-17
2022/12/30 02:33:41;;;;;;;66.20;37.38;;;7.60;84.90;;;;;;4936926;29;20035;-18
2022/12/30 02:36:21;;;;;;;58.47;33.72;;;7.60;84.80;;;;;;4936040;29;20043;-15
2022/12/30 02:39:13;;;;;;;61.95;34.00;;;7.60;84.60;;;;;;4935946;29;20440;-18
2022/12/30 02:44:41;;;;;;;43.42;24.63;;;7.50;84.90;;;;;;4936131;29;20399;-17
2022/12/30 02:47:26;;;;;;;42.22;25.83;;;7.50;84.90;;;;;;4935907;29;20062;-16
2022/12/30 02:52:44;;;;;;;51.28;30.08;;;7.60;84.90;;;;;;4936019;29;20074;-17
2022/12/30 02:55:10;;;;;;;40.45;24.42;;;7.60;84.80;;;;;;4935560;29;20028;-17
2022/12/30 02:57:36;;;;;;;40.35;24.00;;;7.60;84.90;;;;;;4935679;29;20082;-15
2022/12/30 03:06:38;;;;;;;53.47;30.92;;;7.60;84.60;;;;;;4935988;29;20539;-17
2022/12/30 03:09:28;;;;;;;43.30;25.27;;;7.60;84.70;;;;;;4935259;29;20546;-18
2022/12/30 03:12:28;;;;;;;48.22;27.05;;;7.60;84.70;;;;;;4935394;29;20392;-17
2022/12/30 03:15:00;;;;;;;50.47;28.23;;;7.60;84.60;;;;;;4935068;29;20032;-17
2022/12/30 03:17:31;;;;;;;39.95;25.67;;;7.60;84.60;;;;;;4935634;29;20076;-16
2022/12/30 03:20:04;;;;;;;37.72;24.15;;;7.60;84.70;;;;;;4935591;29;20034;-16
2022/12/30 03:28:07;;;;;;;40.42;24.90;;;7.70;84.90;;;;;;4935639;29;20039;-16
2022/12/30 03:30:39;;;;;;;47.15;27.98;;;7.70;84.80;;;;;;4935388;29;20031;-16
2022/12/30 03:33:05;;;;;;;47.60;26.45;;;7.70;84.80;;;;;;4934994;29;20377;-15
2022/12/30 03:35:37;;;;;;;34.58;20.42;;;7.70;84.70;;;;;;4935373;29;20114;-18
2022/12/30 03:38:04;;;;;;;49.65;28.80;;;7.70;84.70;;;;;;4935444;29;20495;-15
2022/12/30 03:40:35;;;;;;;44.38;25.48;;;7.70;84.70;;;;;;4935142;29;20174;-16
2022/12/30 03:43:02;;;;;;;47.25;27.80;;;7.70;84.60;;;;;;4934975;29;20433;-15
2022/12/30 03:45:27;;;;;;;40.33;23.33;;;7.70;84.50;;;;;;4935093;29;20059;-16
2022/12/30 03:47:53;;;;;;;35.92;21.92;;;7.70;84.60;;;;;;4935037;29;20107;-17
2022/12/30 03:50:19;;;;;;;36.47;21.77;;;7.70;84.60;;;;;;4935271;29;20023;-15
2022/12/30 03:52:45;;;;;;;35.03;20.65;;;7.70;84.60;;;;;;4935364;29;20039;-15
2022/12/30 03:55:11;;;;;;;35.30;21.65;;;7.80;84.50;;;;;;4935044;29;20435;-16
2022/12/30 03:57:37;;;;;;;37.97;22.10;;;7.80;84.60;;;;;;4934922;29;20190;-15
2022/12/30 04:00:07;;;;;;;34.28;20.20;;;7.80;84.50;;;;;;4935110;29;20120;-16
2022/12/30 04:02:32;;;;;;;36.92;23.75;;;7.80;84.60;;;;;;4934913;29;20083;-16
2022/12/30 04:04:58;;;;;;;44.78;26.65;;;7.90;84.70;;;;;;4938380;29;20479;-16
2022/12/30 04:07:24;;;;;;;43.45;24.65;;;7.90;84.50;;;;;;4937491;29;20032;-17
2022/12/30 04:09:50;;;;;;;32.53;20.33;;;7.80;84.40;;;;;;4938946;29;20026;-16
2022/12/30 04:12:16;;;;;;;39.42;22.08;;;7.80;84.40;;;;;;4938633;29;20020;-16
2022/12/30 04:14:41;;;;;;;44.28;26.55;;;7.80;84.50;;;;;;4938744;29;20059;-16
2022/12/30 04:17:07;;;;;;;35.90;22.05;;;7.80;84.50;;;;;;4938537;29;20053;-16
2022/12/30 04:19:33;;;;;;;32.03;19.27;;;7.80;84.50;;;;;;4938512;29;20047;-15
2022/12/30 04:21:59;;;;;;;34.28;20.83;;;7.80;84.50;;;;;;4938677;29;20071;-16
2022/12/30 04:24:25;;;;;;;46.72;26.67;;;7.80;84.60;;;;;;4938129;29;20051;-15
2022/12/30 04:26:50;;;;;;;40.15;23.67;;;7.80;84.60;;;;;;4938115;29;20163;-14
2022/12/30 04:29:16;;;;;;;38.78;22.85;;;7.80;84.40;;;;;;4938541;29;20038;-17
2022/12/30 04:31:42;;;;;;;35.45;22.40;;;7.70;84.70;;;;;;4938452;29;20059;-15
2022/12/30 04:34:08;;;;;;;28.27;18.55;;;7.70;84.70;;;;;;4938206;29;20134;-18
2022/12/30 04:36:34;;;;;;;32.50;19.42;;;7.70;84.70;;;;;;4938134;29;20527;-14
2022/12/30 04:39:00;;;;;;;30.27;19.27;;;7.70;84.70;;;;;;4937924;29;20031;-14
2022/12/30 04:41:26;;;;;;;30.48;19.10;;;7.70;84.80;;;;;;4938504;29;20393;-14
2022/12/30 04:43:51;;;;;;;28.33;17.63;;;7.70;84.80;;;;;;4938376;29;20039;-16
2022/12/30 04:46:17;;;;;;;38.95;23.63;;;7.70;84.80;;;;;;4938211;29;20510;-14
2022/12/30 04:48:43;;;;;;;33.00;19.83;;;7.70;84.80;;;;;;4938082;29;20110;-15
2022/12/30 04:51:09;;;;;;;27.70;17.38;;;7.70;84.80;;;;;;4937734;29;20496;-14
2022/12/30 04:53:35;;;;;;;27.52;17.52;;;7.70;84.80;;;;;;4938133;29;20032;-14
2022/12/30 04:56:00;;;;;;;30.30;18.23;;;7.80;84.90;;;;;;4937847;29;20023;-14
2022/12/30 04:58:26;;;;;;;29.17;18.60;;;7.80;84.90;;;;;;4937985;29;20103;-15
2022/12/30 05:00:52;;;;;;;41.05;22.70;;;7.80;84.90;;;;;;4937596;29;20035;-13
2022/12/30 05:03:19;;;;;;;33.40;20.33;;;7.90;84.80;;;;;;4938146;29;20024;-17
2022/12/30 05:05:46;;;;;;;36.42;21.88;;;7.90;84.70;;;;;;4937950;29;20484;-16
2022/12/30 05:08:12;;;;;;;33.50;20.38;;;7.90;84.80;;;;;;4937762;29;20082;-17
2022/12/30 05:10:39;;;;;;;39.25;23.08;;;7.90;84.70;;;;;;4938084;29;20492;-16
2022/12/30 05:13:05;;;;;;;38.08;23.55;;;7.80;84.60;;;;;;4937393;29;20055;-17
2022/12/30 05:15:32;;;;;;;27.17;18.30;;;7.80;84.60;;;;;;4936553;29;20154;-17
2022/12/30 05:17:58;;;;;;;35.42;21.35;;;7.70;84.60;;;;;;4937765;29;20027;-14
2022/12/30 05:20:24;;;;;;;33.55;19.40;;;7.70;84.80;;;;;;4937612;29;20039;-15
2022/12/30 05:22:50;;;;;;;36.88;22.25;;;7.70;84.90;;;;;;4937025;29;20037;-12
2022/12/30 05:28:00;;;;;;;42.70;25.48;;;7.70;84.70;;;;;;4937677;29;20070;-14
2022/12/30 05:30:26;;;;;;;29.63;18.83;;;7.60;84.60;;;;;;4937133;29;20035;-14
2022/12/30 05:32:52;;;;;;;41.42;22.25;;;7.60;84.70;;;;;;4937085;29;20039;-15
2022/12/30 05:35:18;;;;;;;31.23;19.13;;;7.60;84.70;;;;;;4937489;29;20038;-15
2022/12/30 05:37:44;;;;;;;39.63;24.73;;;7.60;84.90;;;;;;4937084;29;20035;-17
2022/12/30 05:40:10;;;;;;;37.55;21.35;;;7.60;84.90;;;;;;4937079;29;20024;-16
2022/12/30 05:42:36;;;;;;;30.10;18.73;;;7.50;84.90;;;;;;4937049;29;20027;-18
2022/12/30 05:45:03;;;;;;;43.13;25.25;;;7.60;85.00;;;;;;4936570;29;20087;-18
2022/12/30 05:47:29;;;;;;;39.47;23.48;;;7.60;85.10;;;;;;4936874;29;20119;-16
2022/12/30 05:49:55;;;;;;;45.58;25.52;;;7.60;85.10;;;;;;4937212;29;20110;-18
2022/12/30 05:52:21;;;;;;;33.15;20.38;;;7.60;85.00;;;;;;4937147;29;20111;-16
2022/12/30 05:54:47;;;;;;;29.60;18.13;;;7.60;85.10;;;;;;4936682;29;20365;-19
2022/12/30 05:57:13;;;;;;;29.73;18.88;;;7.60;85.00;;;;;;4936887;29;20102;-17
2022/12/30 05:59:39;;;;;;;39.10;22.52;;;7.70;84.90;;;;;;4936880;29;20131;-18
2022/12/30 06:02:05;;;;;;;37.20;22.45;;;7.70;84.80;;;;;;4936751;29;20108;-17
2022/12/30 06:04:31;;;;;;;32.65;20.30;;;7.80;84.60;;;;;;4936566;29;20032;-15
2022/12/30 06:06:57;;;;;;;32.28;20.50;;;7.80;84.60;;;;;;4936410;29;20032;-16
2022/12/30 06:09:23;;;;;;;29.80;19.23;;;7.90;84.60;;;;;;4936660;29;20032;-16
2022/12/30 06:11:49;;;;;;;35.67;20.63;;;7.90;84.50;;;;;;4936774;29;20122;-16
2022/12/30 06:14:17;;;;;;;33.20;19.77;;;7.90;84.60;;;;;;4936588;29;20488;-15
2022/12/30 06:16:43;;;;;;;26.27;17.13;;;7.90;84.50;;;;;;4936513;29;20032;-16
2022/12/30 06:19:10;;;;;;;31.05;18.60;;;7.90;84.50;;;;;;4936436;29;20059;-15
2022/12/30 06:21:35;;;;;;;32.33;19.80;;;7.90;84.30;;;;;;4936421;29;20527;-15
2022/12/30 06:24:02;;;;;;;36.63;21.55;;;8.00;84.10;;;;;;4934700;29;20048;-14
2022/12/30 06:26:27;;;;;;;34.65;21.88;;;7.90;84.20;;;;;;4935692;29;20024;-15
2022/12/30 06:28:53;;;;;;;33.67;20.95;;;7.90;84.30;;;;;;4935864;29;20161;-14
2022/12/30 06:31:19;;;;;;;41.03;22.98;;;7.90;84.30;;;;;;4936232;29;20027;-16
2022/12/30 06:33:45;;;;;;;42.85;24.77;;;7.90;84.30;;;;;;4935913;29;20516;-15
2022/12/30 06:36:11;;;;;;;41.45;24.42;;;7.80;84.20;;;;;;4936243;29;20028;-18
2022/12/30 06:38:38;;;;;;;43.10;25.15;;;7.80;84.20;;;;;;4936076;29;20024;-15
2022/12/30 06:41:04;;;;;;;40.42;25.02;;;7.70;84.30;;;;;;4935526;29;20155;-17
2022/12/30 06:43:30;;;;;;;38.50;23.25;;;7.60;84.40;;;;;;4936417;29;20024;-18
2022/12/30 06:45:56;;;;;;;42.10;25.55;;;7.60;84.40;;;;;;4935873;29;20049;-17
2022/12/30 06:48:22;;;;;;;41.20;25.05;;;7.50;84.50;;;;;;4935972;29;20024;-17
2022/12/30 06:50:48;;;;;;;39.90;23.45;;;7.50;84.70;;;;;;4935448;29;20023;-18
2022/12/30 06:53:14;;;;;;;46.47;26.92;;;7.50;84.80;;;;;;4935879;29;20485;-18
2022/12/30 06:55:40;;;;;;;42.28;24.48;;;7.50;84.90;;;;;;4935817;29;20099;-15
2022/12/30 06:58:06;;;;;;;42.00;24.73;;;7.50;85.00;;;;;;4936080;29;20464;-17
2022/12/30 07:00:33;;;;;;;43.45;25.13;;;7.50;85.10;;;;;;4935381;29;20040;-17
2022/12/30 07:02:59;;;;;;;34.47;19.77;;;7.50;85.10;;;;;;4935236;29;20030;-17
2022/12/30 07:05:25;;;;;;;41.13;22.42;;;7.50;85.20;;;;;;4935767;29;20127;-18
2022/12/30 07:07:51;;;;;;;43.13;26.52;;;7.40;85.30;;;;;;4935434;29;20038;-19
2022/12/30 07:10:18;;;;;;;85.97;49.13;;;7.40;85.30;;;;;;4935696;29;20115;-16
2022/12/30 07:12:43;;;;;;;70.40;39.03;;;7.50;85.30;;;;;;4934118;29;20047;-16
2022/12/30 07:15:10;;;;;;;51.38;31.60;;;7.50;85.40;;;;;;4935000;29;20043;-18
2022/12/30 07:17:36;;;;;;;48.17;27.60;;;7.50;85.40;;;;;;4935269;29;20024;-17
2022/12/30 07:20:02;;;;;;;49.70;30.50;;;7.50;85.50;;;;;;4935382;29;20079;-17
2022/12/30 07:22:28;;;;;;;54.13;28.85;;;7.50;85.50;;;;;;4935415;29;20079;-16
2022/12/30 07:24:54;;;;;;;51.88;28.10;;;7.50;85.40;;;;;;4934904;29;20055;-17
2022/12/30 07:27:19;;;;;;;43.08;25.27;;;7.50;85.40;;;;;;4935605;29;20019;-17
2022/12/30 07:29:45;;;;;;;44.78;27.38;;;7.40;85.40;;;;;;4935126;29;20028;-16
2022/12/30 07:32:11;;;;;;;39.58;24.95;;;7.40;85.40;;;;;;4935428;29;20095;-16
2022/12/30 07:34:37;;;;;;;42.95;24.33;;;7.50;85.50;;;;;;4935250;29;20027;-16
2022/12/30 07:37:04;;;;;;;36.75;21.98;;;7.40;85.50;;;;;;4934875;29;20035;-17
2022/12/30 07:39:31;;;;;;;39.28;22.58;;;7.40;85.60;;;;;;4934278;29;20475;-17
2022/12/30 07:41:57;;;;;;;34.33;20.70;;;7.50;85.70;;;;;;4935064;29;20083;-15
2022/12/30 07:44:23;;;;;;;33.35;20.83;;;7.50;85.70;;;;;;4935212;29;20047;-17
2022/12/30 07:46:49;;;;;;;31.27;17.98;;;7.60;85.70;;;;;;4934862;29;20494;-17
2022/12/30 07:49:15;;;;;;;36.35;21.88;;;7.60;85.60;;;;;;4934964;29;20024;-17
2022/12/30 07:51:41;;;;;;;28.98;17.00;;;7.70;85.60;;;;;;4935349;29;20026;-17
2022/12/30 07:54:07;;;;;;;33.90;21.02;;;7.80;85.60;;;;;;4935502;29;20043;-16
2022/12/30 07:56:33;;;;;;;37.80;22.48;;;7.90;85.60;;;;;;4933627;29;20119;-17
2022/12/30 07:58:59;;;;;;;34.08;21.02;;;7.90;85.60;;;;;;4934911;29;20082;-18
2022/12/30 08:01:25;;;;;;;31.67;19.05;;;8.00;85.50;;;;;;4935005;29;20031;-17
2022/12/30 08:03:51;;;;;;;43.72;24.92;;;8.10;85.30;;;;;;4934891;29;20491;-16
2022/12/30 08:06:18;;;;;;;36.00;21.48;;;8.10;85.40;;;;;;4934833;29;20039;-17
2022/12/30 08:08:45;;;;;;;45.40;26.40;;;8.20;85.40;;;;;;4935004;29;20032;-16
2022/12/30 08:11:13;;;;;;;39.10;23.90;;;8.20;85.20;;;;;;4934679;29;20019;-18
2022/12/30 08:13:41;;;;;;;45.85;26.98;;;8.30;84.90;;;;;;4935010;29;20082;-17
2022/12/30 08:16:13;;;;;;;47.65;28.15;;;8.30;84.90;;;;;;4933391;29;20344;-17
2022/12/30 08:18:39;;;;;;;47.00;28.00;;;8.30;84.70;;;;;;4934740;29;20094;-16
2022/12/30 08:21:09;;;;;;;37.25;23.35;;;8.20;84.70;;;;;;4934504;29;20035;-14
2022/12/30 08:23:35;;;;;;;42.15;25.50;;;8.30;84.90;;;;;;4934639;29;20055;-17
2022/12/30 08:26:11;;;;;;;45.67;28.52;;;8.30;84.80;;;;;;4934868;29;20027;-18
2022/12/30 08:28:37;;;;;;;52.17;29.67;;;8.30;84.60;;;;;;4933544;29;20031;-17
2022/12/30 08:31:12;;;;;;;52.30;31.30;;;8.30;84.60;;;;;;4934466;29;20059;-16
2022/12/30 08:33:37;;;;;;;51.55;31.85;;;8.30;84.60;;;;;;4934639;29;20493;-15
2022/12/30 08:36:06;;;;;;;51.03;31.67;;;8.30;84.50;;;;;;4934611;29;20030;-15
2022/12/30 08:38:37;;;;;;;47.70;29.98;;;8.30;84.50;;;;;;4934675;29;20028;-18
2022/12/30 08:41:11;;;;;;;51.78;29.38;;;8.30;84.60;;;;;;4934336;29;20038;-18
2022/12/30 08:43:37;;;;;;;46.40;29.70;;;8.30;84.60;;;;;;4933166;29;20122;-15
2022/12/30 08:46:03;;;;;;;50.85;29.67;;;8.30;84.60;;;;;;4934442;29;20135;-17
2022/12/30 08:48:29;;;;;;;50.88;30.63;;;8.30;84.60;;;;;;4934989;29;20058;-17
2022/12/30 08:50:56;;;;;;;50.95;31.27;;;8.30;84.70;;;;;;4937246;29;20488;-18
2022/12/30 08:53:22;;;;;;;51.10;29.98;;;8.40;84.70;;;;;;4938154;29;20036;-16
2022/12/30 08:55:48;;;;;;;44.58;26.42;;;8.40;84.80;;;;;;4938077;29;20038;-17
2022/12/30 08:58:14;;;;;;;47.17;29.05;;;8.40;84.70;;;;;;4938046;29;20032;-16
2022/12/30 09:00:40;;;;;;;49.20;31.45;;;8.40;84.80;;;;;;4937533;29;20111;-18
2022/12/30 09:03:06;;;;;;;46.80;28.63;;;8.50;84.70;;;;;;4937466;29;20037;-17
2022/12/30 09:05:32;;;;;;;44.28;27.65;;;8.50;84.60;;;;;;4937841;29;20028;-16
2022/12/30 09:07:58;;;;;;;45.90;27.50;;;8.50;84.60;;;;;;4937561;29;20552;-17
2022/12/30 09:10:24;;;;;;;46.15;27.35;;;8.60;84.70;;;;;;4937684;29;20032;-18
2022/12/30 09:12:50;;;;;;;64.20;44.08;;;8.60;84.60;;;;;;4937576;29;20082;-17
2022/12/30 09:15:16;;;;;;;128.82;72.35;;;8.70;84.70;;;;;;4937307;29;20436;-17
2022/12/30 09:17:42;;;;;;;54.55;32.20;;;8.80;84.70;;;;;;4937427;29;20034;-17
2022/12/30 09:20:08;;;;;;;49.17;27.95;;;8.80;84.60;;;;;;4937625;29;20114;-18
2022/12/30 09:22:34;;;;;;;44.45;27.73;;;8.80;84.40;;;;;;4937271;29;20024;-17
2022/12/30 09:25:00;;;;;;;43.65;27.15;;;8.90;84.30;;;;;;4936817;29;20103;-16
2022/12/30 09:27:26;;;;;;;47.65;28.52;;;8.90;84.30;;;;;;4937533;29;20020;-18
2022/12/30 09:29:52;;;;;;;47.50;27.92;;;8.90;84.40;;;;;;4937110;29;20024;-16
2022/12/30 09:32:18;;;;;;;57.42;32.92;;;8.90;84.30;;;;;;4937004;29;20107;-16
2022/12/30 09:34:43;;;;;;;45.65;26.90;;;8.90;84.20;;;;;;4937026;29;20036;-15
2022/12/30 09:37:11;;;;;;;43.30;27.02;;;9.00;84.20;;;;;;4936743;29;20542;-15
2022/12/30 09:39:36;;;;;;;56.88;33.63;;;9.00;84.20;;;;;;4937247;29;20032;-17
2022/12/30 09:44:57;;;;;;;43.90;26.10;;;9.00;84.00;;;;;;4936852;29;20039;-18
2022/12/30 09:47:33;;;;;;;38.33;23.52;;;9.10;84.00;;;;;;4937129;29;20044;-15
2022/12/30 09:49:58;;;;;;;35.22;22.48;;;9.10;84.10;;;;;;4936900;29;20028;-17
2022/12/30 09:52:24;;;;;;;41.30;24.75;;;9.20;84.10;;;;;;4936998;29;20026;-14
2022/12/30 09:54:56;;;;;;;42.47;24.08;;;9.20;84.20;;;;;;4936647;29;20028;-16
2022/12/30 09:57:32;;;;;;;39.67;24.42;;;9.30;84.00;;;;;;4937152;29;20030;-17
2022/12/30 10:00:23;;;;;;;39.50;24.25;;;9.40;83.80;;;;;;4936976;29;20077;-17
2022/12/30 10:02:57;;;;;;;38.38;23.30;;;9.40;83.60;;;;;;4935990;29;20035;-16
2022/12/30 10:05:38;;;;;;;40.30;24.42;;;9.40;83.60;;;;;;4936883;29;20028;-17
2022/12/30 10:08:51;;;;;;;41.10;25.02;;;9.50;83.40;;;;;;4936584;29;20523;-14
2022/12/30 10:11:28;;;;;;;39.72;23.90;;;9.50;83.30;;;;;;4907107;29;20020;-15
2022/12/30 10:14:27;;;;;;;37.38;22.90;;;9.60;83.30;;;;;;4936781;29;20047;-16
2022/12/30 10:17:14;;;;;;;35.30;21.00;;;9.70;83.20;;;;;;4936082;29;20107;-16
2022/12/30 10:19:50;;;;;;;38.58;22.23;;;9.80;83.20;;;;;;4936348;29;20131;-16
2022/12/30 10:22:40;;;;;;;37.10;23.00;;;9.90;83.20;;;;;;4936562;29;20032;-17
2022/12/30 10:25:21;;;;;;;38.22;23.02;;;10.00;83.00;;;;;;4935689;29;20055;-12
2022/12/30 10:27:49;;;;;;;39.90;23.85;;;10.10;82.80;;;;;;4936381;29;20060;-13
2022/12/30 10:30:18;;;;;;;38.63;22.75;;;10.20;82.60;;;;;;4936269;29;20055;-14
2022/12/30 10:33:07;;;;;;;37.30;21.67;;;10.30;82.50;;;;;;4936066;29;20465;-16
2022/12/30 10:35:34;;;;;;;44.80;24.83;;;10.40;82.30;;;;;;4927667;29;20039;-16
2022/12/30 10:38:09;;;;;;;36.28;22.17;;;10.40;82.00;;;;;;4934781;29;20067;-14
2022/12/30 10:41:01;;;;;;;73.47;37.28;;;10.40;81.70;;;;;;4935914;29;20040;-14
2022/12/30 10:43:33;;;;;;;33.22;19.02;;;10.40;81.70;;;;;;4909860;29;20032;-13
2022/12/30 10:46:35;;;;;;;34.17;20.10;;;10.40;81.60;;;;;;4935993;29;20516;-12
2022/12/30 10:49:47;;;;;;;29.38;17.10;;;10.40;81.60;;;;;;4935627;29;20032;-17
2022/12/30 10:52:15;;;;;;;30.27;18.55;;;10.50;81.70;;;;;;4935779;29;20027;-15
2022/12/30 10:54:41;;;;;;;36.67;21.23;;;10.50;81.60;;;;;;4935810;29;20514;-16
2022/12/30 10:57:16;;;;;;;31.55;18.77;;;10.60;81.40;;;;;;4935674;29;20043;-18
2022/12/30 10:59:42;;;;;;;46.55;26.05;;;10.60;81.30;;;;;;4935993;29;20032;-17
2022/12/30 11:02:21;;;;;;;37.45;22.60;;;10.60;81.20;;;;;;4935459;29;20067;-17
2022/12/30 11:04:47;;;;;;;34.83;20.48;;;10.70;81.10;;;;;;4935445;29;20055;-18
2022/12/30 11:07:16;;;;;;;31.90;18.70;;;10.80;80.70;;;;;;4935476;29;20040;-15
2022/12/30 11:09:44;;;;;;;34.80;20.13;;;10.90;80.70;;;;;;4936031;29;20388;-15
2022/12/30 11:15:17;;;;;;;28.33;17.60;;;10.90;79.90;;;;;;4935789;29;20099;-15
2022/12/30 11:17:50;;;;;;;43.08;25.58;;;10.90;80.10;;;;;;4936104;29;20023;-14
2022/12/30 11:20:16;;;;;;;35.88;21.77;;;10.90;80.20;;;;;;4935271;29;20116;-14
2022/12/30 11:22:50;;;;;;;36.75;22.35;;;11.10;80.10;;;;;;4935333;29;20024;-17
2022/12/30 11:25:16;;;;;;;32.88;19.67;;;11.20;79.70;;;;;;4917020;29;20147;-15
2022/12/30 11:27:46;;;;;;;34.35;20.00;;;11.40;79.60;;;;;;4916559;29;20028;-17
2022/12/30 11:30:54;;;;;;;33.17;20.67;;;11.40;79.40;;;;;;4916368;29;20075;-15
2022/12/30 11:33:39;;;;;;;35.08;21.83;;;11.50;79.10;;;;;;4914131;29;20037;-16
2022/12/30 11:36:31;;;;;;;34.47;23.35;;;11.40;78.90;;;;;;4916526;29;20060;-17
2022/12/30 11:39:06;;;;;;;36.67;22.65;;;11.40;78.90;;;;;;4916220;29;20063;-13
2022/12/30 11:41:34;;;;;;;35.65;22.63;;;11.20;79.00;;;;;;4916538;29;20402;-15
2022/12/30 11:43:59;;;;;;;35.97;21.55;;;11.10;79.10;;;;;;4916389;29;20028;-13
2022/12/30 11:46:38;;;;;;;28.02;18.88;;;11.10;79.30;;;;;;4916594;29;20462;-11
2022/12/30 11:49:20;;;;;;;36.60;20.13;;;10.90;79.40;;;;;;4914750;29;20036;-17
2022/12/30 11:51:54;;;;;;;30.45;19.30;;;11.00;79.70;;;;;;4916524;29;20036;-16
2022/12/30 11:54:27;;;;;;;36.67;20.27;;;11.10;79.50;;;;;;4916020;29;20028;-16
2022/12/30 11:56:54;;;;;;;29.67;19.40;;;11.20;79.50;;;;;;4915878;29;20054;-17
2022/12/30 11:59:45;;;;;;;28.77;18.08;;;11.20;79.30;;;;;;4915928;29;20040;-14
2022/12/30 12:02:29;;;;;;;28.42;17.88;;;11.20;79.10;;;;;;4915964;29;20067;-14
2022/12/30 12:04:56;;;;;;;25.45;16.13;;;11.10;79.10;;;;;;4915975;29;20048;-16
2022/12/30 12:07:26;;;;;;;31.67;19.88;;;11.10;79.20;;;;;;4916229;29;20062;-16
2022/12/30 12:10:03;;;;;;;27.58;18.02;;;11.10;78.90;;;;;;4916139;29;20044;-14
2022/12/30 12:12:42;;;;;;;24.55;15.90;;;11.00;78.90;;;;;;4916318;29;20103;-15
2022/12/30 12:15:25;;;;;;;27.50;17.77;;;10.90;78.80;;;;;;4915823;29;20025;-17
2022/12/30 12:18:01;;;;;;;29.52;18.27;;;10.90;78.90;;;;;;4916092;29;20080;-16
2022/12/30 12:20:40;;;;;;;28.85;18.15;;;10.90;78.90;;;;;;4915761;29;20055;-14
2022/12/30 12:23:20;;;;;;;26.73;17.60;;;10.80;78.90;;;;;;4918601;29;20381;-14
2022/12/30 12:25:58;;;;;;;24.77;16.33;;;10.80;78.90;;;;;;4937654;29;20064;-15
2022/12/30 12:28:25;;;;;;;28.38;18.00;;;10.70;79.00;;;;;;4938896;29;20028;-16
2022/12/30 12:31:09;;;;;;;28.98;17.10;;;10.60;79.00;;;;;;4937992;29;20424;-15
2022/12/30 12:33:57;;;;;;;27.08;17.15;;;10.60;79.20;;;;;;4938552;29;20032;-16
2022/12/30 12:36:44;;;;;;;25.65;16.45;;;10.60;79.20;;;;;;4938461;29;20028;-17
2022/12/30 12:39:18;;;;;;;28.67;17.17;;;10.50;79.30;;;;;;4937994;29;20113;-16
2022/12/30 12:42:04;;;;;;;;;;;10.50;79.50;;;;;;4938498;29;20032;-15
2022/12/30 12:44:36;;;;;;;28.52;17.83;;;10.50;79.60;;;;;;4927997;29;19934;-17
2022/12/30 12:47:35;;;;;;;26.95;17.08;;;10.50;79.70;;;;;;4937690;29;20396;-16
2022/12/30 12:50:21;;;;;;;27.58;18.02;;;10.60;79.80;;;;;;4938343;29;20027;-17
2022/12/30 12:53:19;;;;;;;32.40;20.35;;;10.60;79.90;;;;;;4937892;29;20032;-20
2022/12/30 12:56:20;;;;;;;32.35;19.90;;;10.70;80.00;;;;;;4937868;29;20071;-16
2022/12/30 12:59:01;;;;;;;33.83;21.90;;;10.70;79.90;;;;;;4937963;29;20030;-16
2022/12/30 13:02:00;;;;;;;32.30;20.80;;;10.80;79.90;;;;;;4937926;29;20119;-17
2022/12/30 13:04:35;;;;;;;36.03;23.75;;;10.90;79.80;;;;;;4937672;29;20114;-16
2022/12/30 13:07:20;;;;;;;31.05;20.40;;;10.90;79.90;;;;;;4937523;29;20620;-16
2022/12/30 13:09:52;;;;;;;42.00;25.98;;;10.90;79.90;;;;;;4937683;29;20475;-14
2022/12/30 13:12:50;;;;;;;32.22;21.27;;;10.90;79.90;;;;;;4937705;29;20028;-16
2022/12/30 13:15:22;;;;;;;35.70;23.02;;;11.00;79.90;;;;;;4878925;29;20153;-17
2022/12/30 13:17:52;;;;;;;37.25;23.15;;;11.00;79.90;;;;;;4878730;29;20037;-16
2022/12/30 13:20:27;;;;;;;36.45;23.83;;;11.10;79.90;;;;;;4878715;29;20105;-16
2022/12/30 13:22:53;;;;;;;39.05;25.80;;;11.10;79.50;;;;;;4878166;29;20041;-13
2022/12/30 13:25:33;;;;;;;36.33;23.70;;;11.10;79.40;;;;;;4878633;29;20041;-16
2022/12/30 13:28:00;;;;;;;32.60;20.98;;;11.10;79.30;;;;;;4878748;29;20453;-15
2022/12/30 13:30:35;;;;;;;31.70;20.52;;;11.00;79.40;;;;;;4878602;29;20025;-12
2022/12/30 13:33:30;;;;;;;35.13;21.88;;;11.00;79.50;;;;;;4878478;29;20060;-16
2022/12/30 13:36:14;;;;;;;34.05;22.48;;;11.10;79.30;;;;;;4877610;29;20203;-16
2022/12/30 13:39:04;;;;;;;35.83;23.10;;;11.10;79.30;;;;;;4878608;29;20135;-16
2022/12/30 13:41:32;;;;;;;36.55;22.98;;;11.10;79.10;;;;;;4878403;29;20422;-16
2022/12/30 13:44:02;;;;;;;31.13;20.10;;;11.10;79.10;;;;;;4878667;29;20040;-15
2022/12/30 13:46:32;;;;;;;36.08;20.75;;;11.00;79.20;;;;;;4878281;29;20033;-15
2022/12/30 13:49:23;;;;;;;31.13;18.95;;;10.90;79.30;;;;;;4878109;29;20037;-16
2022/12/30 13:52:01;;;;;;;31.98;19.83;;;11.00;79.40;;;;;;4896980;29;20123;-15
2022/12/30 13:54:29;;;;;;;30.77;19.58;;;11.00;79.40;;;;;;4899064;29;20564;-16